Linwood, Maryland
Current Conditions -  °F | °C
As of 1:25 AM on Thursday 29 Jan 2015 (Local Time) from KDMW Reporting Station
Scattered Clouds Scattered Clouds  
Wind Chill: 19°   Ceiling: Unl
Heat Index: 19°   Visibility: 10mi
Dew Point:   Wind: 3mph
Humidity: 49%   Direction: 310°NW
Pressure: 30.29"   Gusts: NA
Location:  39.56°N, 77.14°W
Report Text: KDMW 290625Z AUTO 31003KT 10SM SCT080 M07/M16 A3029 RMK AO2
Loading
Personal Weather Stations






























Interactive Weather Map New forecast layout! Learn more

10-Day Weather Forecast

Advertisements
Track Severe Weather on mobile